Time;durP1;ratioP1;P1;durP2;ratioP2;P2;SDS_P1;SDS_P2;PMS_P1;PMS_P2;Temp;Humidity;BMP_temperature;BMP_pressure;BME280_temperature;BME280_humidity;BME280_pressure;Samples;Min_cycle;Max_cycle;Signal;HPM_P1;HPM_P2
2023/04/07 00:01:22;;;;;;;45.25;22.90;;;6.60;99.90;;;;;;5027733;28;20060;-69
2023/04/07 00:03:47;;;;;;;44.40;24.65;;;6.60;99.90;;;;;;5010346;28;20098;-71
2023/04/07 00:06:13;;;;;;;47.55;24.88;;;6.60;99.90;;;;;;4987805;28;20072;-71
2023/04/07 00:08:39;;;;;;;49.45;26.27;;;6.50;99.90;;;;;;4992259;28;20045;-69
2023/04/07 00:11:05;;;;;;;49.97;26.70;;;6.60;99.90;;;;;;5011126;28;20087;-71
2023/04/07 00:13:30;;;;;;;54.55;26.83;;;6.60;99.90;;;;;;5007590;28;20037;-71
2023/04/07 00:15:56;;;;;;;48.85;25.13;;;6.60;99.90;;;;;;5007315;28;20041;-70
2023/04/07 00:18:21;;;;;;;44.55;23.98;;;6.50;99.90;;;;;;5007461;28;20048;-71
2023/04/07 00:20:47;;;;;;;51.42;24.40;;;6.50;99.90;;;;;;4998337;28;20060;-74
2023/04/07 00:23:13;;;;;;;45.53;22.88;;;6.60;99.90;;;;;;4996652;28;20044;-70
2023/04/07 00:25:38;;;;;;;49.47;23.55;;;6.60;99.90;;;;;;5009997;28;20037;-69
2023/04/07 00:28:04;;;;;;;45.28;22.75;;;6.60;99.90;;;;;;4991987;28;20077;-70
2023/04/07 00:30:29;;;;;;;50.58;24.13;;;6.50;99.90;;;;;;5011115;28;20048;-69
2023/04/07 00:32:55;;;;;;;49.42;24.88;;;6.50;99.90;;;;;;5012042;28;20045;-69
2023/04/07 00:35:21;;;;;;;48.65;24.13;;;6.50;99.90;;;;;;4989036;28;20048;-70
2023/04/07 00:37:47;;;;;;;43.72;22.85;;;6.60;99.90;;;;;;5004026;28;20116;-70
2023/04/07 00:40:12;;;;;;;47.20;23.83;;;6.50;99.90;;;;;;5005109;28;20136;-69
2023/04/07 00:42:38;;;;;;;50.65;24.17;;;6.50;99.90;;;;;;4991943;28;20087;-70
2023/04/07 00:45:04;;;;;;;49.92;24.67;;;6.50;99.90;;;;;;5005933;28;20037;-72
2023/04/07 00:47:30;;;;;;;46.47;24.30;;;6.60;99.90;;;;;;5011745;28;20069;-71
2023/04/07 00:49:56;;;;;;;48.42;25.20;;;6.60;99.90;;;;;;4991297;28;20072;-70
2023/04/07 00:52:27;;;;;;;49.85;24.55;;;6.50;99.90;;;;;;5007898;28;20056;-70
2023/04/07 00:54:54;;;;;;;49.40;24.58;;;6.60;99.90;;;;;;5003397;28;20073;-71
2023/04/07 00:57:21;;;;;;;45.92;22.92;;;6.50;99.90;;;;;;5009521;28;20060;-69
2023/04/07 00:59:48;;;;;;;50.78;24.95;;;6.50;99.90;;;;;;5007612;28;20041;-71
2023/04/07 01:02:32;;;;;;;54.28;25.58;;;6.50;99.90;;;;;;5005311;28;20038;-70
2023/04/07 01:05:16;;;;;;;47.00;24.58;;;6.60;99.90;;;;;;5001249;28;20038;-71
2023/04/07 01:08:20;;;;;;;51.13;24.85;;;6.50;99.90;;;;;;4990696;28;20046;-70
2023/04/07 01:11:26;;;;;;;51.50;25.38;;;6.60;99.90;;;;;;5000618;28;20045;-69
2023/04/07 01:13:53;;;;;;;46.92;22.88;;;6.60;99.90;;;;;;4963891;28;20045;-70
2023/04/07 01:16:35;;;;;;;55.10;26.88;;;6.50;99.90;;;;;;5000894;28;20120;-70
2023/04/07 01:19:33;;;;;;;56.58;26.75;;;6.50;99.90;;;;;;5005695;28;20462;-70
2023/04/07 01:22:00;;;;;;;58.10;25.00;;;6.50;99.90;;;;;;4998850;28;20045;-72
2023/04/07 01:24:48;;;;;;;50.90;25.23;;;6.50;99.90;;;;;;5002468;28;20037;-70
2023/04/07 01:27:27;;;;;;;53.92;25.48;;;6.50;99.90;;;;;;5004351;28;20087;-71
2023/04/07 01:29:54;;;;;;;51.30;25.77;;;6.50;99.90;;;;;;5006309;28;20083;-70
2023/04/07 01:32:22;;;;;;;61.67;26.83;;;6.50;99.90;;;;;;4983909;28;20049;-70
2023/04/07 01:34:51;;;;;;;55.78;26.60;;;6.50;99.90;;;;;;4995332;28;20042;-71
2023/04/07 01:37:17;;;;;;;56.28;26.75;;;6.60;99.90;;;;;;4988303;28;20049;-70
2023/04/07 01:39:43;;;;;;;57.60;26.85;;;6.60;99.90;;;;;;5011745;28;20485;-70
2023/04/07 01:42:09;;;;;;;58.85;25.98;;;6.50;99.90;;;;;;5006212;28;20068;-71
2023/04/07 01:44:36;;;;;;;58.67;26.50;;;6.60;99.90;;;;;;5006465;28;20041;-69
2023/04/07 01:47:02;;;;;;;61.88;28.50;;;6.60;99.90;;;;;;5003258;28;20924;-70
2023/04/07 01:49:29;;;;;;;62.17;26.80;;;6.60;99.90;;;;;;5002211;28;20041;-70
2023/04/07 01:51:56;;;;;;;58.88;27.95;;;6.60;99.90;;;;;;5004460;28;20037;-70
2023/04/07 01:54:22;;;;;;;66.65;29.77;;;6.60;99.90;;;;;;5003447;28;20377;-70
2023/04/07 01:56:48;;;;;;;62.10;28.65;;;6.60;99.90;;;;;;5011571;28;20127;-71
2023/04/07 01:59:14;;;;;;;62.28;28.27;;;6.60;99.90;;;;;;5022121;28;20049;-70
2023/04/07 02:01:40;;;;;;;62.35;29.83;;;6.60;99.90;;;;;;5009177;28;20041;-70
2023/04/07 02:04:15;;;;;;;60.05;29.55;;;6.60;99.90;;;;;;5002488;28;20041;-71
2023/04/07 02:06:51;;;;;;;66.60;29.35;;;6.60;99.90;;;;;;4987589;28;20041;-70
2023/04/07 02:09:20;;;;;;;66.45;29.45;;;6.60;99.90;;;;;;5007758;28;20042;-69
2023/04/07 02:11:46;;;;;;;61.35;29.30;;;6.60;99.90;;;;;;5010317;28;20788;-69
2023/04/07 02:14:14;;;;;;;60.63;29.33;;;6.60;99.90;;;;;;5006144;28;20604;-70
2023/04/07 02:16:41;;;;;;;62.15;28.80;;;6.60;99.90;;;;;;4992429;28;20119;-70
2023/04/07 02:19:07;;;;;;;68.15;30.60;;;6.60;99.90;;;;;;5004876;28;20547;-71
2023/04/07 02:21:35;;;;;;;70.55;30.17;;;6.60;99.90;;;;;;5000147;28;20496;-71
2023/04/07 02:24:04;;;;;;;64.45;28.42;;;6.60;99.90;;;;;;5008213;28;20111;-72
2023/04/07 02:26:34;;;;;;;56.92;28.73;;;6.60;99.90;;;;;;5009667;28;20124;-71
2023/04/07 02:29:00;;;;;;;68.00;30.07;;;6.50;99.90;;;;;;5006123;28;20088;-70
2023/04/07 02:31:25;;;;;;;62.65;29.63;;;6.60;99.90;;;;;;5010936;28;20288;-71
2023/04/07 02:33:51;;;;;;;71.65;29.60;;;6.60;99.90;;;;;;5009367;28;20427;-69
2023/04/07 02:36:16;;;;;;;74.88;31.23;;;6.50;99.90;;;;;;5003344;28;20412;-69
2023/04/07 02:38:42;;;;;;;66.95;30.33;;;6.60;99.90;;;;;;4992760;28;20085;-69
2023/04/07 02:41:07;;;;;;;70.28;28.85;;;6.60;99.90;;;;;;5011771;28;20038;-69
2023/04/07 02:43:33;;;;;;;74.53;30.25;;;6.60;99.90;;;;;;5008285;28;20041;-70
2023/04/07 02:45:59;;;;;;;60.88;27.45;;;6.60;99.90;;;;;;5008926;28;20045;-69
2023/04/07 02:48:24;;;;;;;69.07;31.08;;;6.60;99.90;;;;;;5008980;28;20042;-69
2023/04/07 02:50:50;;;;;;;77.93;31.33;;;6.60;99.90;;;;;;4993842;28;20137;-70
2023/04/07 02:53:15;;;;;;;70.55;30.10;;;6.60;99.90;;;;;;5006492;28;20128;-70
2023/04/07 02:55:41;;;;;;;71.15;31.63;;;6.60;99.90;;;;;;4986458;28;20045;-67
2023/04/07 02:58:06;;;;;;;65.80;28.58;;;6.60;99.90;;;;;;5024360;28;20045;-68
2023/04/07 03:00:33;;;;;;;71.15;29.30;;;6.60;99.90;;;;;;5005025;28;20582;-68
2023/04/07 03:02:59;;;;;;;61.97;27.05;;;6.60;99.90;;;;;;5009176;28;20033;-68
2023/04/07 03:05:24;;;;;;;82.72;31.52;;;6.60;99.90;;;;;;5003974;28;20389;-69
2023/04/07 03:07:50;;;;;;;76.05;29.83;;;6.60;99.90;;;;;;4983996;28;20037;-68
2023/04/07 03:10:15;;;;;;;60.28;27.45;;;6.60;99.90;;;;;;5001488;28;20045;-69
2023/04/07 03:12:42;;;;;;;69.90;28.27;;;6.60;99.90;;;;;;5001410;28;20036;-70
2023/04/07 03:15:08;;;;;;;60.75;29.20;;;6.60;99.90;;;;;;5020095;28;20057;-68
2023/04/07 03:17:34;;;;;;;66.85;28.88;;;6.60;99.90;;;;;;4988534;28;20130;-69
2023/04/07 03:19:59;;;;;;;63.33;27.40;;;6.60;99.90;;;;;;4998621;28;20060;-68
2023/04/07 03:22:25;;;;;;;55.97;26.27;;;6.60;99.90;;;;;;5006301;28;20034;-68
2023/04/07 03:24:51;;;;;;;57.35;25.30;;;6.50;99.90;;;;;;4999529;28;20030;-69
2023/04/07 03:27:17;;;;;;;51.10;25.80;;;6.50;99.90;;;;;;5018187;28;20041;-68
2023/04/07 03:29:42;;;;;;;55.58;26.48;;;6.60;99.90;;;;;;5003348;28;20046;-68
2023/04/07 03:32:08;;;;;;;53.30;25.65;;;6.60;99.90;;;;;;5003609;28;20029;-68
2023/04/07 03:34:34;;;;;;;65.43;27.58;;;6.50;99.90;;;;;;5003777;28;20033;-68
2023/04/07 03:37:00;;;;;;;48.00;24.80;;;6.50;99.90;;;;;;5000421;28;20042;-67
2023/04/07 03:39:25;;;;;;;60.92;26.63;;;6.60;99.90;;;;;;4991187;28;20188;-68
2023/04/07 03:41:51;;;;;;;51.53;25.55;;;6.50;99.90;;;;;;5007301;28;20056;-67
2023/04/07 03:44:16;;;;;;;56.95;25.42;;;6.50;99.90;;;;;;5011953;28;20374;-68
2023/04/07 03:46:44;;;;;;;60.22;27.75;;;6.50;99.90;;;;;;5011748;28;20037;-68
2023/04/07 03:49:10;;;;;;;52.40;25.42;;;6.50;99.90;;;;;;5010059;28;20052;-67
2023/04/07 03:51:35;;;;;;;49.25;25.13;;;6.60;99.90;;;;;;5011785;28;20033;-67
2023/04/07 03:54:01;;;;;;;57.15;26.33;;;6.50;99.90;;;;;;5006963;28;20052;-67
2023/04/07 03:56:27;;;;;;;58.60;27.02;;;6.50;99.90;;;;;;5005994;28;20229;-70
2023/04/07 03:58:53;;;;;;;58.20;26.33;;;6.50;99.90;;;;;;5021299;28;20041;-67
2023/04/07 04:01:18;;;;;;;52.33;24.83;;;6.50;99.90;;;;;;5010781;28;20096;-67
2023/04/07 04:03:45;;;;;;;56.05;26.08;;;6.50;99.90;;;;;;5013078;28;20083;-67
2023/04/07 04:06:11;;;;;;;53.25;26.20;;;6.50;99.90;;;;;;5005678;28;20041;-66
2023/04/07 04:08:36;;;;;;;57.20;27.10;;;6.50;99.90;;;;;;5002741;28;20048;-68
2023/04/07 04:11:02;;;;;;;52.42;24.90;;;6.50;99.90;;;;;;5009738;28;20071;-67
2023/04/07 04:13:27;;;;;;;48.88;24.60;;;6.50;99.90;;;;;;5008361;28;20461;-69
2023/04/07 04:15:53;;;;;;;48.05;23.50;;;6.50;99.90;;;;;;5009136;28;20037;-68
2023/04/07 04:18:19;;;;;;;50.05;23.63;;;6.50;99.90;;;;;;5007086;28;20065;-69
2023/04/07 04:20:44;;;;;;;47.97;24.40;;;6.40;99.90;;;;;;5007768;28;20037;-68
2023/04/07 04:23:10;;;;;;;45.88;23.50;;;6.50;99.90;;;;;;5013934;28;20040;-69
2023/04/07 04:25:38;;;;;;;46.05;23.25;;;6.50;99.90;;;;;;4992066;28;20112;-68
2023/04/07 04:28:04;;;;;;;49.78;22.90;;;6.40;99.90;;;;;;5007969;28;20033;-68
2023/04/07 04:30:30;;;;;;;49.92;23.92;;;6.40;99.90;;;;;;5008861;28;20180;-67
2023/04/07 04:32:55;;;;;;;45.33;22.60;;;6.40;99.90;;;;;;5006300;28;22459;-68
2023/04/07 04:35:21;;;;;;;43.35;21.15;;;6.40;99.90;;;;;;5004709;28;20179;-69
2023/04/07 04:37:47;;;;;;;48.78;23.45;;;6.40;99.90;;;;;;5028693;28;20038;-69
2023/04/07 04:40:13;;;;;;;42.33;21.73;;;6.40;99.90;;;;;;4995829;28;20161;-68
2023/04/07 04:42:39;;;;;;;42.17;23.02;;;6.40;99.90;;;;;;5011873;28;20038;-67
2023/04/07 04:45:05;;;;;;;49.50;23.10;;;6.40;99.90;;;;;;5007237;28;20076;-68
2023/04/07 04:47:31;;;;;;;55.50;23.80;;;6.40;99.90;;;;;;5027653;28;20123;-67
2023/04/07 04:49:56;;;;;;;47.13;22.98;;;6.40;99.90;;;;;;4993126;28;20095;-68
2023/04/07 04:52:22;;;;;;;45.28;21.40;;;6.40;99.90;;;;;;5011695;28;20049;-69
2023/04/07 04:54:47;;;;;;;43.38;21.88;;;6.40;99.90;;;;;;5010162;28;20043;-67
2023/04/07 04:57:13;;;;;;;44.70;20.75;;;6.40;99.90;;;;;;5008887;28;20053;-67
2023/04/07 04:59:38;;;;;;;47.88;22.63;;;6.40;99.90;;;;;;5006446;28;20095;-67
2023/04/07 05:02:04;;;;;;;44.40;21.60;;;6.40;99.90;;;;;;5007776;28;20116;-68
2023/04/07 05:04:30;;;;;;;46.30;22.55;;;6.40;99.90;;;;;;5010442;28;20037;-67
2023/04/07 05:06:56;;;;;;;47.22;22.55;;;6.40;99.90;;;;;;4993264;28;20048;-66
2023/04/07 05:09:21;;;;;;;45.55;22.35;;;6.40;99.90;;;;;;5005895;28;20144;-68
2023/04/07 05:11:47;;;;;;;45.50;22.23;;;6.40;99.90;;;;;;5007379;28;20044;-68
2023/04/07 05:14:12;;;;;;;42.47;22.58;;;6.40;99.90;;;;;;5011133;28;20163;-67
2023/04/07 05:16:38;;;;;;;42.65;21.50;;;6.40;99.90;;;;;;5005293;28;20048;-68
2023/04/07 05:19:04;;;;;;;45.17;22.05;;;6.40;99.90;;;;;;5006713;28;20103;-68
2023/04/07 05:21:29;;;;;;;45.80;22.05;;;6.40;99.90;;;;;;5008530;28;20761;-67
2023/04/07 05:23:55;;;;;;;38.83;19.33;;;6.40;99.90;;;;;;5006956;28;20043;-68
2023/04/07 05:26:20;;;;;;;43.67;21.05;;;6.40;99.90;;;;;;5024430;28;20036;-67
2023/04/07 05:28:46;;;;;;;41.15;22.27;;;6.40;99.90;;;;;;5005103;28;20044;-69
2023/04/07 05:31:12;;;;;;;46.65;22.42;;;6.40;99.90;;;;;;5009932;28;20533;-68
2023/04/07 05:33:37;;;;;;;42.72;22.05;;;6.40;99.90;;;;;;5009264;28;20041;-67
2023/04/07 05:36:03;;;;;;;47.45;22.73;;;6.40;99.90;;;;;;4988610;28;20045;-68
2023/04/07 05:38:28;;;;;;;48.58;23.10;;;6.40;99.90;;;;;;5008371;28;20053;-67
2023/04/07 05:40:54;;;;;;;45.70;24.08;;;6.40;99.90;;;;;;5009584;28;20116;-68
2023/04/07 05:43:20;;;;;;;46.72;23.23;;;6.40;99.90;;;;;;5004058;28;20068;-68
2023/04/07 05:45:46;;;;;;;49.30;23.70;;;6.40;99.90;;;;;;5009507;28;20041;-67
2023/04/07 05:48:11;;;;;;;49.30;24.63;;;6.40;99.90;;;;;;5013771;28;20471;-67
2023/04/07 05:50:37;;;;;;;47.05;23.17;;;6.40;99.90;;;;;;5007826;28;20050;-67
2023/04/07 05:53:02;;;;;;;47.00;24.35;;;6.40;99.90;;;;;;5008694;28;20037;-67
2023/04/07 05:55:28;;;;;;;45.45;23.15;;;6.40;99.90;;;;;;5005895;28;20081;-68
2023/04/07 05:57:53;;;;;;;48.45;22.73;;;6.40;99.90;;;;;;4996172;28;20088;-67
2023/04/07 06:00:19;;;;;;;46.97;23.67;;;6.50;99.90;;;;;;5007159;28;20048;-67
2023/04/07 06:02:45;;;;;;;42.08;22.92;;;6.50;99.90;;;;;;5009819;28;20140;-68
2023/04/07 06:05:11;;;;;;;47.03;24.60;;;6.50;99.90;;;;;;5003411;28;20544;-67
2023/04/07 06:07:36;;;;;;;45.20;22.25;;;6.50;99.90;;;;;;5006193;28;20520;-68
2023/04/07 06:10:02;;;;;;;44.95;23.00;;;6.50;99.90;;;;;;4991532;28;20120;-67
2023/04/07 06:12:28;;;;;;;43.22;22.95;;;6.50;99.90;;;;;;5000577;28;20057;-67
2023/04/07 06:14:54;;;;;;;45.83;22.67;;;6.50;99.90;;;;;;4997470;28;20044;-67
2023/04/07 06:17:20;;;;;;;46.85;21.77;;;6.60;99.90;;;;;;4996112;28;20504;-68
2023/04/07 06:19:46;;;;;;;46.40;21.70;;;6.60;99.90;;;;;;4996746;28;20037;-68
2023/04/07 06:22:12;;;;;;;42.60;21.88;;;6.60;99.90;;;;;;4997768;28;20115;-68
2023/04/07 06:24:37;;;;;;;42.63;22.23;;;6.60;99.90;;;;;;4997621;28;20038;-67
2023/04/07 06:27:03;;;;;;;43.80;22.55;;;6.70;99.90;;;;;;4979768;28;20048;-67
2023/04/07 06:29:29;;;;;;;43.15;22.10;;;6.70;99.90;;;;;;4989215;28;20489;-67
2023/04/07 06:31:55;;;;;;;44.83;22.30;;;6.70;99.90;;;;;;5000374;28;20037;-68
2023/04/07 06:34:21;;;;;;;44.92;23.50;;;6.70;99.90;;;;;;4996541;28;20048;-68
2023/04/07 06:36:46;;;;;;;44.33;20.90;;;6.70;99.90;;;;;;5017514;28;20080;-69
2023/04/07 06:39:12;;;;;;;43.28;22.58;;;6.70;99.90;;;;;;5005983;28;20377;-67
2023/04/07 06:41:38;;;;;;;41.88;22.33;;;6.70;99.90;;;;;;4993710;28;20065;-67
2023/04/07 06:44:03;;;;;;;40.35;20.65;;;6.80;99.90;;;;;;4997887;28;20044;-68
2023/04/07 06:46:29;;;;;;;38.78;20.80;;;6.80;99.90;;;;;;4993614;28;20034;-66
2023/04/07 06:48:55;;;;;;;42.78;21.98;;;6.80;99.90;;;;;;4994406;28;20042;-69
2023/04/07 06:51:21;;;;;;;42.35;21.85;;;6.80;99.90;;;;;;4987534;28;20156;-67
2023/04/07 06:53:47;;;;;;;42.90;22.05;;;6.90;99.90;;;;;;4997560;28;20052;-69
2023/04/07 06:56:13;;;;;;;40.22;20.92;;;6.90;99.90;;;;;;5016223;28;20100;-68
2023/04/07 06:58:39;;;;;;;37.78;19.65;;;6.90;99.90;;;;;;4992563;28;20073;-66
2023/04/07 07:01:05;;;;;;;39.17;21.55;;;7.00;99.90;;;;;;5005510;28;20033;-68
2023/04/07 07:03:32;;;;;;;36.08;20.17;;;7.00;99.90;;;;;;5007509;28;20041;-67
2023/04/07 07:05:58;;;;;;;37.60;20.55;;;7.10;99.90;;;;;;4986824;28;20037;-68
2023/04/07 07:08:25;;;;;;;34.35;19.75;;;7.20;99.90;;;;;;5012171;28;20378;-68
2023/04/07 07:10:51;;;;;;;36.70;20.17;;;7.10;99.90;;;;;;5010001;28;20402;-68
2023/04/07 07:13:18;;;;;;;37.88;20.52;;;7.10;99.90;;;;;;5011418;28;20056;-68
2023/04/07 07:15:44;;;;;;;34.35;19.27;;;7.10;99.90;;;;;;5013017;28;20045;-69
2023/04/07 07:18:11;;;;;;;33.58;18.60;;;7.00;99.90;;;;;;4999672;28;20054;-69
2023/04/07 07:20:36;;;;;;;36.85;20.38;;;7.10;99.90;;;;;;5009744;28;20103;-69
2023/04/07 07:23:02;;;;;;;38.00;19.98;;;7.10;99.90;;;;;;4993727;28;20033;-69
2023/04/07 07:25:28;;;;;;;37.55;20.15;;;7.20;99.90;;;;;;5012199;28;20131;-68
2023/04/07 07:27:54;;;;;;;38.55;20.95;;;7.20;99.90;;;;;;5010420;28;20496;-68
2023/04/07 07:30:21;;;;;;;36.38;19.98;;;7.20;99.90;;;;;;5011299;28;20026;-67
2023/04/07 07:32:47;;;;;;;30.63;18.05;;;7.30;99.90;;;;;;5029783;28;20049;-67
2023/04/07 07:35:13;;;;;;;34.28;18.80;;;7.30;99.90;;;;;;5002156;28;20033;-70
2023/04/07 07:37:39;;;;;;;36.30;18.50;;;7.30;99.90;;;;;;5007995;28;20045;-70
2023/04/07 07:40:05;;;;;;;36.08;20.00;;;7.40;99.90;;;;;;5009748;28;20385;-70
2023/04/07 07:42:30;;;;;;;32.05;18.05;;;7.40;99.90;;;;;;5008338;28;20495;-67
2023/04/07 07:44:57;;;;;;;32.40;16.92;;;7.50;99.90;;;;;;5010996;28;20033;-70
2023/04/07 07:47:23;;;;;;;31.42;18.50;;;7.50;99.90;;;;;;5013082;28;20078;-70
2023/04/07 07:49:48;;;;;;;32.03;18.30;;;7.40;99.90;;;;;;5012982;28;20486;-69
2023/04/07 07:52:14;;;;;;;29.23;17.42;;;7.50;99.90;;;;;;5008162;28;20042;-68
2023/04/07 07:54:40;;;;;;;28.35;16.33;;;7.50;99.90;;;;;;5024083;28;20609;-67
2023/04/07 07:57:06;;;;;;;25.27;14.88;;;7.60;99.90;;;;;;5009161;28;20053;-70
2023/04/07 07:59:31;;;;;;;27.13;15.30;;;7.50;99.90;;;;;;5022900;28;20099;-68
2023/04/07 08:01:57;;;;;;;27.27;15.68;;;7.60;99.90;;;;;;5028787;28;20440;-69
2023/04/07 08:04:23;;;;;;;24.90;14.88;;;7.60;99.90;;;;;;5008435;28;20160;-68
2023/04/07 08:06:52;;;;;;;29.63;15.02;;;7.50;99.90;;;;;;5009255;28;20032;-69
2023/04/07 08:09:19;;;;;;;25.10;15.43;;;7.50;99.90;;;;;;4998934;28;20052;-70
2023/04/07 08:11:47;;;;;;;28.35;16.15;;;7.50;99.90;;;;;;4991399;28;20050;-67
2023/04/07 08:14:13;;;;;;;26.90;15.35;;;7.60;99.90;;;;;;5013082;28;20810;-69
2023/04/07 08:16:39;;;;;;;26.45;15.15;;;7.60;99.90;;;;;;5009728;28;20095;-70
2023/04/07 08:19:04;;;;;;;26.63;16.35;;;7.60;99.90;;;;;;5029336;28;20039;-70
2023/04/07 08:21:30;;;;;;;24.95;15.88;;;7.70;99.90;;;;;;5008948;28;20343;-71
2023/04/07 08:23:56;;;;;;;26.73;15.60;;;7.80;99.90;;;;;;5005140;28;20045;-70
2023/04/07 08:26:21;;;;;;;29.60;16.98;;;7.80;99.90;;;;;;5005680;28;20125;-69
2023/04/07 08:28:50;;;;;;;26.60;15.40;;;7.80;99.90;;;;;;4986983;28;20044;-71
2023/04/07 08:31:16;;;;;;;25.63;15.63;;;7.70;99.90;;;;;;5014206;28;20099;-69
2023/04/07 08:33:42;;;;;;;27.98;16.63;;;7.70;99.90;;;;;;5028965;28;20363;-71
2023/04/07 08:36:07;;;;;;;30.92;18.67;;;7.60;99.90;;;;;;5010710;28;20041;-71
2023/04/07 08:38:33;;;;;;;28.60;17.15;;;7.70;99.90;;;;;;5010026;28;20831;-70
2023/04/07 08:41:37;;;;;;;28.75;17.33;;;7.70;99.90;;;;;;5011551;28;20108;-70
2023/04/07 08:44:02;;;;;;;28.83;17.63;;;7.70;99.90;;;;;;5006009;28;20080;-68
2023/04/07 08:46:29;;;;;;;30.70;17.95;;;7.70;99.90;;;;;;4997017;28;20042;-70
2023/04/07 08:48:56;;;;;;;28.17;17.40;;;7.70;99.90;;;;;;5008697;28;20128;-68
2023/04/07 08:51:32;;;;;;;32.28;17.52;;;7.70;99.90;;;;;;5016611;28;20060;-70
2023/04/07 08:54:12;;;;;;;27.27;16.02;;;7.80;99.90;;;;;;5006933;28;20490;-70
2023/04/07 08:56:41;;;;;;;27.60;17.45;;;7.80;99.90;;;;;;5031178;28;20498;-71
2023/04/07 08:59:09;;;;;;;27.02;17.40;;;7.80;99.90;;;;;;5012092;28;20541;-68
2023/04/07 09:01:36;;;;;;;28.52;18.10;;;7.80;99.90;;;;;;5006869;28;20482;-70
2023/04/07 09:04:03;;;;;;;32.47;18.70;;;7.80;99.90;;;;;;4995735;28;20033;-71
2023/04/07 09:06:32;;;;;;;32.45;19.17;;;7.80;99.90;;;;;;5005518;28;20044;-71
2023/04/07 09:08:59;;;;;;;36.33;21.17;;;7.90;99.90;;;;;;5010642;28;20067;-71
2023/04/07 09:11:26;;;;;;;29.67;18.42;;;8.10;99.90;;;;;;4996251;28;20069;-67
2023/04/07 09:13:52;;;;;;;28.48;17.05;;;8.10;99.90;;;;;;5010584;28;20116;-69
2023/04/07 09:16:17;;;;;;;29.70;17.33;;;8.10;99.90;;;;;;5009872;28;20198;-68
2023/04/07 09:18:43;;;;;;;27.30;17.15;;;8.10;99.90;;;;;;5012649;28;20078;-70
2023/04/07 09:21:10;;;;;;;27.80;16.80;;;8.10;99.90;;;;;;5008490;28;20049;-70
2023/04/07 09:23:40;;;;;;;30.38;16.85;;;8.10;99.90;;;;;;5001851;28;20043;-70
2023/04/07 09:26:25;;;;;;;27.60;17.08;;;8.10;99.90;;;;;;5007244;28;20091;-69
2023/04/07 09:28:57;;;;;;;25.67;16.05;;;8.10;99.90;;;;;;5014374;28;20037;-69
2023/04/07 09:31:42;;;;;;;25.20;16.13;;;8.10;99.90;;;;;;5014874;28;20053;-67
2023/04/07 09:34:32;;;;;;;26.92;16.80;;;8.20;99.90;;;;;;5008449;28;20076;-70
2023/04/07 09:36:58;;;;;;;25.95;15.68;;;8.20;99.90;;;;;;5012422;28;20477;-70
2023/04/07 09:39:24;;;;;;;30.88;16.98;;;8.20;99.90;;;;;;5011453;28;20048;-69
2023/04/07 09:41:50;;;;;;;27.52;15.38;;;8.20;99.90;;;;;;5029706;28;20557;-69
2023/04/07 09:44:17;;;;;;;25.00;15.40;;;8.30;99.90;;;;;;5010639;28;20048;-69
2023/04/07 09:46:57;;;;;;;24.58;13.98;;;8.30;99.90;;;;;;5011733;28;20431;-69
2023/04/07 09:49:24;;;;;;;20.52;12.35;;;8.40;99.90;;;;;;5010460;28;20037;-70
2023/04/07 09:52:03;;;;;;;18.65;11.45;;;8.30;99.90;;;;;;5011883;28;20041;-70
2023/04/07 09:54:37;;;;;;;20.85;13.20;;;8.50;99.90;;;;;;5012140;28;20078;-69
2023/04/07 09:57:06;;;;;;;20.33;12.35;;;8.60;99.90;;;;;;5008218;28;20042;-67
2023/04/07 09:59:33;;;;;;;17.58;11.73;;;8.80;99.90;;;;;;5008153;28;20053;-67
2023/04/07 10:02:00;;;;;;;17.55;11.85;;;9.00;99.90;;;;;;5010655;28;20041;-69
2023/04/07 10:04:26;;;;;;;17.98;12.50;;;9.10;99.90;;;;;;5010542;28;20426;-69
2023/04/07 10:06:56;;;;;;;19.50;11.77;;;9.20;99.90;;;;;;5008218;28;20120;-69
2023/04/07 10:09:23;;;;;;;22.05;13.00;;;9.10;99.90;;;;;;5012224;28;20037;-69
2023/04/07 10:11:51;;;;;;;21.60;12.98;;;9.10;99.90;;;;;;5012322;28;20041;-69
2023/04/07 10:14:18;;;;;;;19.45;13.05;;;9.10;99.90;;;;;;5019602;28;20048;-69
2023/04/07 10:16:45;;;;;;;18.17;11.27;;;9.20;99.90;;;;;;5006688;28;20128;-70
2023/04/07 10:19:11;;;;;;;16.58;10.85;;;9.20;99.90;;;;;;5005470;28;20201;-67
2023/04/07 10:21:41;;;;;;;17.02;11.30;;;9.30;99.90;;;;;;5010816;28;20408;-69
2023/04/07 10:24:07;;;;;;;15.73;11.15;;;9.30;99.90;;;;;;5012956;28;20280;-68
2023/04/07 10:26:34;;;;;;;14.63;10.55;;;9.30;99.90;;;;;;5006285;28;20038;-68
2023/04/07 10:29:07;;;;;;;17.15;11.57;;;9.30;99.90;;;;;;4996468;28;20048;-69
2023/04/07 10:31:33;;;;;;;18.40;12.02;;;9.50;99.90;;;;;;5003219;28;20049;-68
2023/04/07 10:34:00;;;;;;;18.98;12.05;;;9.60;99.90;;;;;;5007053;28;20038;-69
2023/04/07 10:36:27;;;;;;;16.58;11.23;;;9.60;99.90;;;;;;4991392;28;20061;-67
2023/04/07 10:39:08;;;;;;;19.90;12.50;;;9.50;99.90;;;;;;4992851;28;20069;-67
2023/04/07 10:41:38;;;;;;;17.42;11.48;;;9.50;99.90;;;;;;5007850;28;20444;-66
2023/04/07 10:44:08;;;;;;;;;;;9.50;99.90;;;;;;4993746;28;20029;-68
2023/04/07 10:46:50;;;;;;;16.58;11.30;;;9.40;99.90;;;;;;4983746;28;19917;-68
2023/04/07 10:49:16;;;;;;;18.08;11.07;;;9.60;99.90;;;;;;4998615;28;20054;-68
2023/04/07 10:51:42;;;;;;;17.50;11.90;;;9.80;99.90;;;;;;5007634;28;20421;-66
2023/04/07 10:54:34;;;;;;;18.63;11.80;;;10.00;99.90;;;;;;5008257;28;20144;-67
2023/04/07 10:57:02;;;;;;;17.50;11.75;;;10.20;99.90;;;;;;5022671;28;20481;-68
2023/04/07 10:59:32;;;;;;;20.58;12.95;;;10.30;99.90;;;;;;5026934;28;20071;-68
2023/04/07 11:02:13;;;;;;;16.92;11.57;;;10.40;99.90;;;;;;5012459;28;20060;-68
2023/04/07 11:04:41;;;;;;;15.07;10.20;;;10.40;99.90;;;;;;4995516;28;20473;-68
2023/04/07 11:07:07;;;;;;;15.50;10.50;;;10.30;99.90;;;;;;5006630;28;20116;-68
2023/04/07 11:09:33;;;;;;;15.85;10.77;;;10.30;99.90;;;;;;5013520;28;20082;-67
2023/04/07 11:11:58;;;;;;;17.52;10.88;;;10.30;99.90;;;;;;5012515;28;20168;-67
2023/04/07 11:14:28;;;;;;;16.02;11.38;;;10.20;99.90;;;;;;5006498;28;20547;-67
2023/04/07 11:16:55;;;;;;;14.18;10.38;;;10.20;99.90;;;;;;5026525;28;20037;-68
2023/04/07 11:19:21;;;;;;;13.40;8.60;;;10.20;99.90;;;;;;4994548;28;20818;-68
2023/04/07 11:21:47;;;;;;;12.02;7.43;;;10.40;99.90;;;;;;5013226;28;20374;-68
2023/04/07 11:24:37;;;;;;;10.30;6.50;;;10.40;99.90;;;;;;5028403;28;20051;-68
2023/04/07 11:27:03;;;;;;;9.75;6.80;;;10.50;99.90;;;;;;4990734;28;20179;-68
2023/04/07 11:29:32;;;;;;;11.20;7.15;;;10.50;99.90;;;;;;4994191;28;20137;-68
2023/04/07 11:32:00;;;;;;;11.30;7.72;;;10.60;99.90;;;;;;5012269;28;20041;-74
2023/04/07 11:34:30;;;;;;;10.48;7.30;;;10.60;99.90;;;;;;5006485;28;20053;-68
2023/04/07 11:36:58;;;;;;;10.50;7.35;;;10.60;99.90;;;;;;5012621;28;20096;-68
2023/04/07 11:39:26;;;;;;;12.82;7.32;;;10.70;99.90;;;;;;5024978;28;20053;-70
2023/04/07 11:41:53;;;;;;;10.68;7.07;;;10.70;99.90;;;;;;5009602;28;20045;-69
2023/04/07 11:44:18;;;;;;;11.23;7.45;;;10.80;99.90;;;;;;5004342;28;20044;-69
2023/04/07 11:46:57;;;;;;;10.73;7.72;;;10.70;99.90;;;;;;5022260;28;20038;-68
2023/04/07 11:49:26;;;;;;;9.63;7.20;;;10.80;99.90;;;;;;5006229;28;20140;-71
2023/04/07 11:52:04;;;;;;;10.85;7.35;;;10.80;99.90;;;;;;5012214;28;20621;-71
2023/04/07 11:54:39;;;;;;;12.00;8.02;;;10.80;99.90;;;;;;5010176;28;20083;-70
2023/04/07 11:57:04;;;;;;;11.13;7.22;;;10.80;99.90;;;;;;5005441;28;20136;-69
2023/04/07 11:59:30;;;;;;;12.98;8.57;;;10.90;99.90;;;;;;4995439;28;20149;-69
2023/04/07 12:01:56;;;;;;;10.95;7.50;;;11.00;99.90;;;;;;4996491;28;20434;-69
2023/04/07 12:04:21;;;;;;;11.15;7.75;;;11.30;99.90;;;;;;4994950;28;20048;-72
2023/04/07 12:06:48;;;;;;;11.95;7.70;;;11.40;99.90;;;;;;4997926;28;20034;-67
2023/04/07 12:09:31;;;;;;;11.20;6.20;;;11.50;99.90;;;;;;5001551;28;20477;-70
2023/04/07 12:11:57;;;;;;;11.02;6.80;;;11.60;99.90;;;;;;4981270;28;20050;-66
2023/04/07 12:14:24;;;;;;;9.23;6.72;;;11.60;99.90;;;;;;4991232;28;20046;-70
2023/04/07 12:16:50;;;;;;;13.25;6.78;;;11.70;99.90;;;;;;4992356;28;20046;-69
2023/04/07 12:19:15;;;;;;;9.30;6.63;;;11.70;99.90;;;;;;4996606;28;20049;-70
2023/04/07 12:21:42;;;;;;;11.55;6.13;;;11.80;99.90;;;;;;4994472;28;20041;-71
2023/04/07 12:24:08;;;;;;;8.50;6.32;;;11.90;99.90;;;;;;4992971;28;20033;-72
2023/04/07 12:26:33;;;;;;;8.90;6.15;;;12.10;99.90;;;;;;4994937;28;20119;-69
2023/04/07 12:29:03;;;;;;;9.00;5.85;;;12.30;99.90;;;;;;4982431;28;20056;-70
2023/04/07 12:31:31;;;;;;;8.80;6.38;;;12.40;99.90;;;;;;4987212;28;20077;-69
2023/04/07 12:33:57;;;;;;;9.27;6.05;;;12.40;99.90;;;;;;4989613;28;20046;-70
2023/04/07 12:36:23;;;;;;;9.57;5.68;;;12.50;99.90;;;;;;4992739;28;20045;-73
2023/04/07 12:38:49;;;;;;;10.23;5.70;;;12.40;99.90;;;;;;4991393;28;21063;-70
2023/04/07 12:41:14;;;;;;;8.57;5.55;;;12.30;99.90;;;;;;4994807;28;20041;-69